TOWK1: Whitewater River, Towanda, KS

Data processed at Mon Jun 19 2017 23:40


All information presented herein is the property of the government of the United States of America and may be revised or deleted at any time without prior notice.
Dissemination of this information without the expressed written consent of the Public Affairs Office, Tulsa District U.S. Army Corps of Engineers is strictly prohibited.
These data are gathered electronically and, as presented, have not undergone any form of quality control. These data are not guaranteed to be valid or correct.
Go to home page.
Go to station list.
Go to home page.

Downstream station:


Previous Day
Next Day
Current Day
    
SHEF ID:       TOWK1     WHITEWATER R AT TOWANDA, KS
STATION TYPE:  

               PRECIP     STAGE  RIV-FLOW  BAT-LOAD
                   in        ft       cfs      volt
              Ccp-Rev   Ccp-Rev   Ccp-Rev   Ccp-Rev
(US/Central)
06/19 00:00      0.00      6.43      1110     12.33
06/19 01:00      0.00      6.12      1020     12.25
06/19 02:00      0.00      5.86       941     12.25
06/19 03:00      0.00      5.61       871     12.25
06/19 04:00      0.00      5.39       810     12.25
06/19 05:00      0.00      5.19       756     12.25
06/19 06:00      0.00      5.00       705     12.25
06/19 07:00      0.00      4.85       663     12.17
06/19 08:00      0.00      4.72       624     12.17
06/19 09:00      0.00      4.57       581     12.17
06/19 10:00      0.00      4.46       551     12.25
06/19 11:00      0.00      4.34       519     12.25
06/19 12:00      0.00      4.23       488     12.25
06/19 13:00      0.00      4.14       464     12.25
06/19 14:00      0.00      4.02       433     12.25
06/19 15:00      0.00      3.93       410     12.41
06/19 16:00      0.00      3.84       387     12.41
06/19 17:00      0.00      3.75       364     12.41
06/19 18:00      0.00      3.69       349     12.41
06/19 19:00      0.00      3.60       327     12.41
06/19 20:00      0.00      3.54       312     12.33
06/19 21:00      0.00      3.48       297     12.33
06/19 22:00      0.00      3.43       286     12.33
06/19 23:00      0.00      3.37       276     12.25